sensor_id;sensor_type;location;lat;lon;timestamp;P1;durP1;ratioP1;P2;durP2;ratioP2
79401;SDS011;68857;47.916;106.940;2024-01-25T00:01:33;74.53;;;26.02;;
79401;SDS011;68857;47.916;106.940;2024-01-25T00:03:59;68.82;;;23.92;;
79401;SDS011;68857;47.916;106.940;2024-01-25T00:06:26;70.65;;;26.02;;
79401;SDS011;68857;47.916;106.940;2024-01-25T00:08:52;71.18;;;26.60;;
79401;SDS011;68857;47.916;106.940;2024-01-25T00:11:18;70.35;;;28.30;;
79401;SDS011;68857;47.916;106.940;2024-01-25T00:13:45;74.32;;;26.55;;
79401;SDS011;68857;47.916;106.940;2024-01-25T00:16:11;71.00;;;25.00;;
79401;SDS011;68857;47.916;106.940;2024-01-25T00:18:38;70.78;;;30.02;;
79401;SDS011;68857;47.916;106.940;2024-01-25T00:21:04;78.25;;;29.77;;
79401;SDS011;68857;47.916;106.940;2024-01-25T00:23:32;80.95;;;28.27;;
79401;SDS011;68857;47.916;106.940;2024-01-25T00:25:58;87.18;;;32.30;;
79401;SDS011;68857;47.916;106.940;2024-01-25T00:28:25;87.03;;;32.30;;
79401;SDS011;68857;47.916;106.940;2024-01-25T00:30:55;89.95;;;32.72;;
79401;SDS011;68857;47.916;106.940;2024-01-25T00:33:21;88.82;;;31.17;;
79401;SDS011;68857;47.916;106.940;2024-01-25T00:35:48;84.35;;;35.63;;
79401;SDS011;68857;47.916;106.940;2024-01-25T00:38:15;85.28;;;36.63;;
79401;SDS011;68857;47.916;106.940;2024-01-25T00:40:41;93.60;;;36.22;;
79401;SDS011;68857;47.916;106.940;2024-01-25T00:43:08;90.78;;;35.67;;
79401;SDS011;68857;47.916;106.940;2024-01-25T00:45:34;81.35;;;30.98;;
79401;SDS011;68857;47.916;106.940;2024-01-25T00:48:01;87.80;;;32.28;;
79401;SDS011;68857;47.916;106.940;2024-01-25T00:50:27;80.80;;;29.77;;
79401;SDS011;68857;47.916;106.940;2024-01-25T00:52:54;102.40;;;34.47;;
79401;SDS011;68857;47.916;106.940;2024-01-25T00:55:20;86.13;;;32.92;;
79401;SDS011;68857;47.916;106.940;2024-01-25T00:57:47;86.97;;;34.47;;
79401;SDS011;68857;47.916;106.940;2024-01-25T01:00:13;80.70;;;34.30;;
79401;SDS011;68857;47.916;106.940;2024-01-25T01:02:42;93.05;;;33.53;;
79401;SDS011;68857;47.916;106.940;2024-01-25T01:05:09;85.82;;;32.20;;
79401;SDS011;68857;47.916;106.940;2024-01-25T01:07:36;88.72;;;32.45;;
79401;SDS011;68857;47.916;106.940;2024-01-25T01:10:02;95.05;;;35.70;;
79401;SDS011;68857;47.916;106.940;2024-01-25T01:12:30;88.28;;;33.75;;
79401;SDS011;68857;47.916;106.940;2024-01-25T01:14:56;88.32;;;32.72;;
79401;SDS011;68857;47.916;106.940;2024-01-25T01:17:23;100.78;;;36.22;;
79401;SDS011;68857;47.916;106.940;2024-01-25T01:19:49;86.70;;;34.97;;
79401;SDS011;68857;47.916;106.940;2024-01-25T01:22:15;100.15;;;32.33;;
79401;SDS011;68857;47.916;106.940;2024-01-25T01:24:42;84.88;;;33.45;;
79401;SDS011;68857;47.916;106.940;2024-01-25T01:27:08;99.35;;;40.28;;
79401;SDS011;68857;47.916;106.940;2024-01-25T01:29:35;91.93;;;35.30;;
79401;SDS011;68857;47.916;106.940;2024-01-25T01:32:01;91.13;;;36.58;;
79401;SDS011;68857;47.916;106.940;2024-01-25T01:34:27;95.15;;;32.38;;
79401;SDS011;68857;47.916;106.940;2024-01-25T01:36:54;103.72;;;35.13;;
79401;SDS011;68857;47.916;106.940;2024-01-25T01:39:20;100.05;;;38.35;;
79401;SDS011;68857;47.916;106.940;2024-01-25T01:41:47;104.90;;;39.40;;
79401;SDS011;68857;47.916;106.940;2024-01-25T01:44:14;101.45;;;36.05;;
79401;SDS011;68857;47.916;106.940;2024-01-25T01:46:41;114.22;;;37.85;;
79401;SDS011;68857;47.916;106.940;2024-01-25T01:49:08;103.95;;;37.92;;
79401;SDS011;68857;47.916;106.940;2024-01-25T01:51:37;111.57;;;42.28;;
79401;SDS011;68857;47.916;106.940;2024-01-25T01:54:05;116.50;;;43.17;;
79401;SDS011;68857;47.916;106.940;2024-01-25T01:56:32;110.35;;;38.75;;
79401;SDS011;68857;47.916;106.940;2024-01-25T01:58:59;116.68;;;41.85;;
79401;SDS011;68857;47.916;106.940;2024-01-25T02:01:26;103.35;;;43.20;;
79401;SDS011;68857;47.916;106.940;2024-01-25T02:03:53;103.15;;;39.92;;
79401;SDS011;68857;47.916;106.940;2024-01-25T02:06:21;111.40;;;39.30;;
79401;SDS011;68857;47.916;106.940;2024-01-25T02:08:47;111.40;;;42.25;;
79401;SDS011;68857;47.916;106.940;2024-01-25T02:11:16;113.60;;;41.88;;
79401;SDS011;68857;47.916;106.940;2024-01-25T02:13:44;124.30;;;42.85;;
79401;SDS011;68857;47.916;106.940;2024-01-25T02:18:36;101.85;;;41.92;;
79401;SDS011;68857;47.916;106.940;2024-01-25T02:21:03;116.47;;;45.60;;
79401;SDS011;68857;47.916;106.940;2024-01-25T02:23:29;118.93;;;48.25;;
79401;SDS011;68857;47.916;106.940;2024-01-25T02:25:56;125.53;;;43.85;;
79401;SDS011;68857;47.916;106.940;2024-01-25T02:28:22;121.35;;;46.47;;
79401;SDS011;68857;47.916;106.940;2024-01-25T02:30:49;121.20;;;46.00;;
79401;SDS011;68857;47.916;106.940;2024-01-25T02:33:15;129.50;;;52.35;;
79401;SDS011;68857;47.916;106.940;2024-01-25T02:35:41;130.50;;;48.80;;
79401;SDS011;68857;47.916;106.940;2024-01-25T02:38:08;129.82;;;48.80;;
79401;SDS011;68857;47.916;106.940;2024-01-25T02:40:34;127.68;;;47.53;;
79401;SDS011;68857;47.916;106.940;2024-01-25T02:43:01;115.63;;;45.50;;
79401;SDS011;68857;47.916;106.940;2024-01-25T02:45:27;120.95;;;43.97;;
79401;SDS011;68857;47.916;106.940;2024-01-25T02:47:53;113.65;;;41.22;;
79401;SDS011;68857;47.916;106.940;2024-01-25T02:50:20;99.05;;;39.28;;
79401;SDS011;68857;47.916;106.940;2024-01-25T02:52:46;99.47;;;35.92;;
79401;SDS011;68857;47.916;106.940;2024-01-25T02:55:13;89.35;;;34.05;;
79401;SDS011;68857;47.916;106.940;2024-01-25T02:57:39;75.30;;;31.50;;
79401;SDS011;68857;47.916;106.940;2024-01-25T03:00:06;73.78;;;27.85;;
79401;SDS011;68857;47.916;106.940;2024-01-25T03:02:33;73.25;;;26.63;;
79401;SDS011;68857;47.916;106.940;2024-01-25T03:05:00;75.38;;;32.00;;
79401;SDS011;68857;47.916;106.940;2024-01-25T03:07:26;74.38;;;31.80;;
79401;SDS011;68857;47.916;106.940;2024-01-25T03:09:53;70.53;;;25.63;;
79401;SDS011;68857;47.916;106.940;2024-01-25T03:12:19;71.70;;;28.88;;
79401;SDS011;68857;47.916;106.940;2024-01-25T03:14:46;67.78;;;29.15;;
79401;SDS011;68857;47.916;106.940;2024-01-25T03:17:12;69.00;;;25.70;;
79401;SDS011;68857;47.916;106.940;2024-01-25T03:19:38;66.82;;;23.48;;
79401;SDS011;68857;47.916;106.940;2024-01-25T03:22:05;60.22;;;25.73;;
79401;SDS011;68857;47.916;106.940;2024-01-25T03:24:31;65.60;;;24.00;;
79401;SDS011;68857;47.916;106.940;2024-01-25T03:26:57;63.40;;;26.00;;
79401;SDS011;68857;47.916;106.940;2024-01-25T03:29:24;64.05;;;26.73;;
79401;SDS011;68857;47.916;106.940;2024-01-25T03:31:50;63.50;;;24.35;;
79401;SDS011;68857;47.916;106.940;2024-01-25T03:34:17;68.80;;;25.02;;
79401;SDS011;68857;47.916;106.940;2024-01-25T03:36:43;62.65;;;25.33;;
79401;SDS011;68857;47.916;106.940;2024-01-25T03:39:09;52.40;;;21.90;;
79401;SDS011;68857;47.916;106.940;2024-01-25T03:41:36;62.92;;;25.27;;
79401;SDS011;68857;47.916;106.940;2024-01-25T03:44:02;63.90;;;22.55;;
79401;SDS011;68857;47.916;106.940;2024-01-25T03:46:29;66.45;;;23.73;;
79401;SDS011;68857;47.916;106.940;2024-01-25T03:48:55;64.22;;;26.35;;
79401;SDS011;68857;47.916;106.940;2024-01-25T03:51:21;68.30;;;24.25;;
79401;SDS011;68857;47.916;106.940;2024-01-25T03:53:49;68.88;;;25.30;;
79401;SDS011;68857;47.916;106.940;2024-01-25T03:56:17;65.00;;;25.85;;
79401;SDS011;68857;47.916;106.940;2024-01-25T03:58:44;69.28;;;28.33;;
79401;SDS011;68857;47.916;106.940;2024-01-25T04:01:11;74.03;;;27.30;;
79401;SDS011;68857;47.916;106.940;2024-01-25T04:03:38;72.88;;;29.48;;
79401;SDS011;68857;47.916;106.940;2024-01-25T04:06:04;68.35;;;32.83;;
79401;SDS011;68857;47.916;106.940;2024-01-25T04:08:31;80.60;;;32.47;;
79401;SDS011;68857;47.916;106.940;2024-01-25T04:10:57;83.13;;;32.08;;
79401;SDS011;68857;47.916;106.940;2024-01-25T04:13:24;87.07;;;35.97;;
79401;SDS011;68857;47.916;106.940;2024-01-25T04:15:50;80.53;;;31.75;;
79401;SDS011;68857;47.916;106.940;2024-01-25T04:18:16;87.57;;;29.25;;
79401;SDS011;68857;47.916;106.940;2024-01-25T04:20:43;85.10;;;34.55;;
79401;SDS011;68857;47.916;106.940;2024-01-25T04:23:10;79.32;;;28.98;;
79401;SDS011;68857;47.916;106.940;2024-01-25T04:25:36;83.50;;;33.10;;
79401;SDS011;68857;47.916;106.940;2024-01-25T04:28:03;82.25;;;33.85;;
79401;SDS011;68857;47.916;106.940;2024-01-25T04:30:29;82.38;;;31.10;;
79401;SDS011;68857;47.916;106.940;2024-01-25T04:32:57;74.53;;;32.05;;
79401;SDS011;68857;47.916;106.940;2024-01-25T04:35:24;74.80;;;29.92;;
79401;SDS011;68857;47.916;106.940;2024-01-25T04:37:51;73.10;;;29.42;;
79401;SDS011;68857;47.916;106.940;2024-01-25T04:40:17;70.82;;;25.60;;
79401;SDS011;68857;47.916;106.940;2024-01-25T04:42:44;67.57;;;28.58;;
79401;SDS011;68857;47.916;106.940;2024-01-25T04:45:10;67.90;;;26.70;;
79401;SDS011;68857;47.916;106.940;2024-01-25T04:47:37;69.25;;;27.88;;
79401;SDS011;68857;47.916;106.940;2024-01-25T04:50:05;66.95;;;27.00;;
79401;SDS011;68857;47.916;106.940;2024-01-25T04:52:31;67.95;;;27.25;;
79401;SDS011;68857;47.916;106.940;2024-01-25T04:54:57;65.97;;;25.85;;
79401;SDS011;68857;47.916;106.940;2024-01-25T04:57:24;58.72;;;23.63;;
79401;SDS011;68857;47.916;106.940;2024-01-25T04:59:50;57.35;;;23.95;;
79401;SDS011;68857;47.916;106.940;2024-01-25T05:02:17;56.60;;;25.42;;
79401;SDS011;68857;47.916;106.940;2024-01-25T05:04:43;59.65;;;22.40;;
79401;SDS011;68857;47.916;106.940;2024-01-25T05:07:09;66.45;;;23.08;;
79401;SDS011;68857;47.916;106.940;2024-01-25T05:09:36;51.53;;;22.58;;
79401;SDS011;68857;47.916;106.940;2024-01-25T05:12:02;55.83;;;23.00;;
79401;SDS011;68857;47.916;106.940;2024-01-25T05:14:29;59.40;;;21.83;;
79401;SDS011;68857;47.916;106.940;2024-01-25T05:16:56;51.78;;;21.88;;
79401;SDS011;68857;47.916;106.940;2024-01-25T05:19:22;58.58;;;20.75;;
79401;SDS011;68857;47.916;106.940;2024-01-25T05:21:50;51.33;;;19.15;;
79401;SDS011;68857;47.916;106.940;2024-01-25T05:24:17;57.38;;;23.52;;
79401;SDS011;68857;47.916;106.940;2024-01-25T05:26:43;48.70;;;22.05;;
79401;SDS011;68857;47.916;106.940;2024-01-25T05:29:09;53.05;;;21.90;;
79401;SDS011;68857;47.916;106.940;2024-01-25T05:31:36;52.97;;;20.58;;
79401;SDS011;68857;47.916;106.940;2024-01-25T05:34:02;55.97;;;20.00;;
79401;SDS011;68857;47.916;106.940;2024-01-25T05:36:29;55.38;;;19.85;;
79401;SDS011;68857;47.916;106.940;2024-01-25T05:38:55;52.45;;;21.45;;
79401;SDS011;68857;47.916;106.940;2024-01-25T05:41:21;51.60;;;21.67;;
79401;SDS011;68857;47.916;106.940;2024-01-25T05:43:48;49.85;;;20.35;;
79401;SDS011;68857;47.916;106.940;2024-01-25T05:46:14;53.70;;;19.88;;
79401;SDS011;68857;47.916;106.940;2024-01-25T05:48:41;53.20;;;19.27;;
79401;SDS011;68857;47.916;106.940;2024-01-25T05:51:07;51.00;;;20.58;;
79401;SDS011;68857;47.916;106.940;2024-01-25T05:53:33;49.45;;;20.25;;
79401;SDS011;68857;47.916;106.940;2024-01-25T05:56:00;56.53;;;21.77;;
79401;SDS011;68857;47.916;106.940;2024-01-25T05:58:29;54.15;;;21.73;;
79401;SDS011;68857;47.916;106.940;2024-01-25T06:00:55;53.45;;;22.08;;
79401;SDS011;68857;47.916;106.940;2024-01-25T06:03:22;49.97;;;20.67;;
79401;SDS011;68857;47.916;106.940;2024-01-25T06:05:48;50.40;;;23.90;;
79401;SDS011;68857;47.916;106.940;2024-01-25T06:08:14;49.25;;;20.70;;
79401;SDS011;68857;47.916;106.940;2024-01-25T06:10:41;52.33;;;21.95;;
79401;SDS011;68857;47.916;106.940;2024-01-25T06:13:08;63.15;;;22.85;;
79401;SDS011;68857;47.916;106.940;2024-01-25T06:15:34;54.45;;;22.48;;
79401;SDS011;68857;47.916;106.940;2024-01-25T06:18:01;57.80;;;21.42;;
79401;SDS011;68857;47.916;106.940;2024-01-25T06:22:54;46.95;;;18.27;;
79401;SDS011;68857;47.916;106.940;2024-01-25T06:25:20;52.45;;;20.30;;
79401;SDS011;68857;47.916;106.940;2024-01-25T06:27:47;53.75;;;20.58;;
79401;SDS011;68857;47.916;106.940;2024-01-25T06:30:14;49.50;;;21.65;;
79401;SDS011;68857;47.916;106.940;2024-01-25T06:32:40;55.30;;;21.48;;
79401;SDS011;68857;47.916;106.940;2024-01-25T06:35:07;48.47;;;22.52;;
79401;SDS011;68857;47.916;106.940;2024-01-25T06:37:33;55.88;;;22.35;;
79401;SDS011;68857;47.916;106.940;2024-01-25T06:39:59;51.80;;;20.73;;
79401;SDS011;68857;47.916;106.940;2024-01-25T06:42:26;46.88;;;21.02;;
79401;SDS011;68857;47.916;106.940;2024-01-25T06:44:52;49.72;;;20.75;;
79401;SDS011;68857;47.916;106.940;2024-01-25T06:47:19;57.97;;;21.25;;
79401;SDS011;68857;47.916;106.940;2024-01-25T06:49:45;54.13;;;21.30;;
79401;SDS011;68857;47.916;106.940;2024-01-25T06:52:16;54.28;;;22.23;;
79401;SDS011;68857;47.916;106.940;2024-01-25T06:54:42;51.63;;;22.63;;
79401;SDS011;68857;47.916;106.940;2024-01-25T06:57:09;56.13;;;20.02;;
79401;SDS011;68857;47.916;106.940;2024-01-25T06:59:35;56.85;;;21.55;;
79401;SDS011;68857;47.916;106.940;2024-01-25T07:02:02;51.30;;;19.80;;
79401;SDS011;68857;47.916;106.940;2024-01-25T07:04:28;53.20;;;21.90;;
79401;SDS011;68857;47.916;106.940;2024-01-25T07:06:55;55.25;;;23.13;;
79401;SDS011;68857;47.916;106.940;2024-01-25T07:09:21;54.50;;;23.13;;
79401;SDS011;68857;47.916;106.940;2024-01-25T07:11:48;55.60;;;21.40;;
79401;SDS011;68857;47.916;106.940;2024-01-25T07:14:14;60.47;;;25.60;;
79401;SDS011;68857;47.916;106.940;2024-01-25T07:16:41;55.92;;;21.88;;
79401;SDS011;68857;47.916;106.940;2024-01-25T07:19:07;56.80;;;25.27;;
79401;SDS011;68857;47.916;106.940;2024-01-25T07:21:33;62.45;;;23.35;;
79401;SDS011;68857;47.916;106.940;2024-01-25T07:24:01;49.30;;;22.33;;
79401;SDS011;68857;47.916;106.940;2024-01-25T07:26:29;53.13;;;23.83;;
79401;SDS011;68857;47.916;106.940;2024-01-25T07:28:56;51.50;;;23.38;;
79401;SDS011;68857;47.916;106.940;2024-01-25T07:31:27;57.95;;;23.80;;
79401;SDS011;68857;47.916;106.940;2024-01-25T07:33:53;56.53;;;24.90;;
79401;SDS011;68857;47.916;106.940;2024-01-25T07:36:20;57.88;;;25.52;;
79401;SDS011;68857;47.916;106.940;2024-01-25T07:38:46;60.55;;;24.65;;
79401;SDS011;68857;47.916;106.940;2024-01-25T07:41:14;60.90;;;24.00;;
79401;SDS011;68857;47.916;106.940;2024-01-25T07:43:40;53.47;;;21.42;;
79401;SDS011;68857;47.916;106.940;2024-01-25T07:46:08;55.20;;;22.88;;
79401;SDS011;68857;47.916;106.940;2024-01-25T07:51:01;60.88;;;21.92;;
79401;SDS011;68857;47.916;106.940;2024-01-25T07:55:54;49.70;;;21.98;;
79401;SDS011;68857;47.916;106.940;2024-01-25T07:58:20;58.22;;;25.77;;
79401;SDS011;68857;47.916;106.940;2024-01-25T08:00:47;55.78;;;24.17;;
79401;SDS011;68857;47.916;106.940;2024-01-25T08:03:14;58.72;;;23.85;;
79401;SDS011;68857;47.916;106.940;2024-01-25T08:05:41;63.30;;;25.23;;
79401;SDS011;68857;47.916;106.940;2024-01-25T08:08:08;50.65;;;23.23;;
79401;SDS011;68857;47.916;106.940;2024-01-25T08:10:35;51.47;;;22.70;;
79401;SDS011;68857;47.916;106.940;2024-01-25T08:13:01;61.78;;;24.20;;
79401;SDS011;68857;47.916;106.940;2024-01-25T08:15:28;57.13;;;25.17;;
79401;SDS011;68857;47.916;106.940;2024-01-25T08:17:54;61.40;;;23.92;;
79401;SDS011;68857;47.916;106.940;2024-01-25T08:20:21;58.42;;;24.65;;
79401;SDS011;68857;47.916;106.940;2024-01-25T08:22:47;56.38;;;22.73;;
79401;SDS011;68857;47.916;106.940;2024-01-25T08:25:13;56.45;;;24.58;;
79401;SDS011;68857;47.916;106.940;2024-01-25T08:27:41;59.72;;;24.77;;
79401;SDS011;68857;47.916;106.940;2024-01-25T08:30:07;57.72;;;24.48;;
79401;SDS011;68857;47.916;106.940;2024-01-25T08:32:34;60.33;;;21.45;;
79401;SDS011;68857;47.916;106.940;2024-01-25T08:35:00;56.45;;;24.45;;
79401;SDS011;68857;47.916;106.940;2024-01-25T08:37:27;55.10;;;24.13;;
79401;SDS011;68857;47.916;106.940;2024-01-25T08:39:53;60.30;;;23.33;;
79401;SDS011;68857;47.916;106.940;2024-01-25T08:42:19;56.08;;;22.95;;
79401;SDS011;68857;47.916;106.940;2024-01-25T08:44:46;58.05;;;23.23;;
79401;SDS011;68857;47.916;106.940;2024-01-25T08:47:19;47.83;;;20.35;;
79401;SDS011;68857;47.916;106.940;2024-01-25T08:49:45;58.42;;;21.63;;
79401;SDS011;68857;47.916;106.940;2024-01-25T08:52:12;59.03;;;21.80;;
79401;SDS011;68857;47.916;106.940;2024-01-25T08:54:38;58.65;;;21.55;;
79401;SDS011;68857;47.916;106.940;2024-01-25T08:57:04;55.55;;;21.88;;
79401;SDS011;68857;47.916;106.940;2024-01-25T08:59:31;53.47;;;21.85;;
79401;SDS011;68857;47.916;106.940;2024-01-25T09:01:58;59.72;;;21.90;;
79401;SDS011;68857;47.916;106.940;2024-01-25T09:04:24;57.78;;;23.60;;
79401;SDS011;68857;47.916;106.940;2024-01-25T09:06:51;51.03;;;23.17;;
79401;SDS011;68857;47.916;106.940;2024-01-25T09:09:17;63.22;;;25.40;;
79401;SDS011;68857;47.916;106.940;2024-01-25T09:11:43;64.22;;;24.55;;
79401;SDS011;68857;47.916;106.940;2024-01-25T09:14:10;59.83;;;25.30;;
79401;SDS011;68857;47.916;106.940;2024-01-25T09:16:36;63.90;;;23.50;;
79401;SDS011;68857;47.916;106.940;2024-01-25T09:21:30;61.20;;;24.17;;
79401;SDS011;68857;47.916;106.940;2024-01-25T09:23:56;64.97;;;22.85;;
79401;SDS011;68857;47.916;106.940;2024-01-25T09:26:24;69.25;;;27.08;;
79401;SDS011;68857;47.916;106.940;2024-01-25T09:28:51;63.72;;;24.63;;
79401;SDS011;68857;47.916;106.940;2024-01-25T09:31:17;64.68;;;27.13;;
79401;SDS011;68857;47.916;106.940;2024-01-25T09:33:44;60.08;;;25.00;;
79401;SDS011;68857;47.916;106.940;2024-01-25T09:36:10;64.90;;;26.23;;
79401;SDS011;68857;47.916;106.940;2024-01-25T09:38:37;66.55;;;27.02;;
79401;SDS011;68857;47.916;106.940;2024-01-25T09:41:03;67.35;;;26.85;;
79401;SDS011;68857;47.916;106.940;2024-01-25T09:43:30;69.57;;;27.13;;
79401;SDS011;68857;47.916;106.940;2024-01-25T09:45:56;66.15;;;28.92;;
79401;SDS011;68857;47.916;106.940;2024-01-25T09:48:23;74.03;;;26.42;;
79401;SDS011;68857;47.916;106.940;2024-01-25T09:50:49;74.32;;;30.10;;
79401;SDS011;68857;47.916;106.940;2024-01-25T09:53:20;72.47;;;29.58;;
79401;SDS011;68857;47.916;106.940;2024-01-25T09:56:08;70.43;;;28.67;;
79401;SDS011;68857;47.916;106.940;2024-01-25T09:58:36;75.80;;;29.92;;
79401;SDS011;68857;47.916;106.940;2024-01-25T10:01:05;75.05;;;28.33;;
79401;SDS011;68857;47.916;106.940;2024-01-25T10:03:31;69.38;;;27.48;;
79401;SDS011;68857;47.916;106.940;2024-01-25T10:06:00;77.30;;;30.05;;
79401;SDS011;68857;47.916;106.940;2024-01-25T10:08:26;74.72;;;30.17;;
79401;SDS011;68857;47.916;106.940;2024-01-25T10:10:53;76.93;;;31.70;;
79401;SDS011;68857;47.916;106.940;2024-01-25T10:13:19;74.43;;;29.58;;
79401;SDS011;68857;47.916;106.940;2024-01-25T10:15:46;86.47;;;31.83;;
79401;SDS011;68857;47.916;106.940;2024-01-25T10:18:13;74.43;;;27.10;;
79401;SDS011;68857;47.916;106.940;2024-01-25T10:20:41;74.13;;;33.47;;
79401;SDS011;68857;47.916;106.940;2024-01-25T10:23:08;86.22;;;33.75;;
79401;SDS011;68857;47.916;106.940;2024-01-25T10:25:35;79.10;;;35.25;;
79401;SDS011;68857;47.916;106.940;2024-01-25T10:28:05;91.13;;;33.95;;
79401;SDS011;68857;47.916;106.940;2024-01-25T10:30:32;83.93;;;32.72;;
79401;SDS011;68857;47.916;106.940;2024-01-25T10:32:59;80.38;;;32.25;;
79401;SDS011;68857;47.916;106.940;2024-01-25T10:35:26;81.97;;;33.30;;
79401;SDS011;68857;47.916;106.940;2024-01-25T10:37:52;85.88;;;34.00;;
79401;SDS011;68857;47.916;106.940;2024-01-25T10:40:19;95.35;;;33.80;;
79401;SDS011;68857;47.916;106.940;2024-01-25T10:42:46;77.53;;;33.63;;
79401;SDS011;68857;47.916;106.940;2024-01-25T10:45:12;84.07;;;32.60;;
79401;SDS011;68857;47.916;106.940;2024-01-25T10:47:39;88.43;;;33.08;;
79401;SDS011;68857;47.916;106.940;2024-01-25T10:50:13;83.90;;;34.20;;
79401;SDS011;68857;47.916;106.940;2024-01-25T10:52:40;77.88;;;31.55;;
79401;SDS011;68857;47.916;106.940;2024-01-25T10:57:42;93.25;;;32.83;;
79401;SDS011;68857;47.916;106.940;2024-01-25T11:00:09;89.93;;;31.77;;
79401;SDS011;68857;47.916;106.940;2024-01-25T11:02:36;100.35;;;36.30;;
79401;SDS011;68857;47.916;106.940;2024-01-25T11:05:22;92.63;;;37.47;;
79401;SDS011;68857;47.916;106.940;2024-01-25T11:07:50;80.75;;;34.50;;
79401;SDS011;68857;47.916;106.940;2024-01-25T11:10:20;95.65;;;34.75;;
79401;SDS011;68857;47.916;106.940;2024-01-25T11:12:54;86.82;;;36.15;;
79401;SDS011;68857;47.916;106.940;2024-01-25T11:15:21;96.28;;;37.80;;
79401;SDS011;68857;47.916;106.940;2024-01-25T11:17:55;100.47;;;35.63;;
79401;SDS011;68857;47.916;106.940;2024-01-25T11:20:22;86.88;;;35.88;;
79401;SDS011;68857;47.916;106.940;2024-01-25T11:22:54;99.35;;;38.53;;
79401;SDS011;68857;47.916;106.940;2024-01-25T11:25:20;100.18;;;35.90;;
79401;SDS011;68857;47.916;106.940;2024-01-25T11:27:50;101.80;;;42.88;;
79401;SDS011;68857;47.916;106.940;2024-01-25T11:30:35;112.47;;;42.10;;
79401;SDS011;68857;47.916;106.940;2024-01-25T11:33:04;106.53;;;41.55;;
79401;SDS011;68857;47.916;106.940;2024-01-25T11:35:37;103.30;;;39.22;;
79401;SDS011;68857;47.916;106.940;2024-01-25T11:38:04;113.40;;;46.53;;
79401;SDS011;68857;47.916;106.940;2024-01-25T11:40:31;109.82;;;44.03;;
79401;SDS011;68857;47.916;106.940;2024-01-25T11:43:00;125.43;;;43.05;;
79401;SDS011;68857;47.916;106.940;2024-01-25T11:45:27;127.35;;;49.10;;
79401;SDS011;68857;47.916;106.940;2024-01-25T11:47:53;127.00;;;49.42;;
79401;SDS011;68857;47.916;106.940;2024-01-25T11:50:20;127.43;;;52.08;;
79401;SDS011;68857;47.916;106.940;2024-01-25T11:52:48;145.80;;;50.88;;
79401;SDS011;68857;47.916;106.940;2024-01-25T11:55:18;120.97;;;44.75;;
79401;SDS011;68857;47.916;106.940;2024-01-25T11:57:49;140.60;;;52.70;;
79401;SDS011;68857;47.916;106.940;2024-01-25T12:00:15;137.45;;;51.22;;
79401;SDS011;68857;47.916;106.940;2024-01-25T12:02:42;137.50;;;49.85;;
79401;SDS011;68857;47.916;106.940;2024-01-25T12:05:09;132.38;;;52.70;;
79401;SDS011;68857;47.916;106.940;2024-01-25T12:07:38;127.18;;;50.95;;
79401;SDS011;68857;47.916;106.940;2024-01-25T12:10:08;140.45;;;51.40;;
79401;SDS011;68857;47.916;106.940;2024-01-25T12:12:35;133.95;;;52.65;;
79401;SDS011;68857;47.916;106.940;2024-01-25T12:15:06;125.00;;;47.72;;
79401;SDS011;68857;47.916;106.940;2024-01-25T12:17:33;141.30;;;52.58;;
79401;SDS011;68857;47.916;106.940;2024-01-25T12:20:04;135.15;;;50.47;;
79401;SDS011;68857;47.916;106.940;2024-01-25T12:22:36;124.00;;;49.47;;
79401;SDS011;68857;47.916;106.940;2024-01-25T12:27:29;131.85;;;45.95;;
79401;SDS011;68857;47.916;106.940;2024-01-25T12:29:56;126.28;;;44.53;;
79401;SDS011;68857;47.916;106.940;2024-01-25T12:32:22;125.15;;;46.90;;
79401;SDS011;68857;47.916;106.940;2024-01-25T12:34:52;126.70;;;44.45;;
79401;SDS011;68857;47.916;106.940;2024-01-25T12:37:19;129.15;;;47.13;;
79401;SDS011;68857;47.916;106.940;2024-01-25T12:39:46;132.10;;;46.60;;
79401;SDS011;68857;47.916;106.940;2024-01-25T12:42:12;127.90;;;44.97;;
79401;SDS011;68857;47.916;106.940;2024-01-25T12:44:39;125.28;;;50.33;;
79401;SDS011;68857;47.916;106.940;2024-01-25T12:47:09;129.00;;;50.35;;
79401;SDS011;68857;47.916;106.940;2024-01-25T12:49:39;132.07;;;48.60;;
79401;SDS011;68857;47.916;106.940;2024-01-25T12:52:06;124.43;;;49.75;;
79401;SDS011;68857;47.916;106.940;2024-01-25T12:56:59;114.95;;;44.85;;
79401;SDS011;68857;47.916;106.940;2024-01-25T12:59:26;111.30;;;45.92;;
79401;SDS011;68857;47.916;106.940;2024-01-25T13:01:52;129.50;;;49.95;;
79401;SDS011;68857;47.916;106.940;2024-01-25T13:04:19;131.95;;;50.95;;
79401;SDS011;68857;47.916;106.940;2024-01-25T13:06:46;131.40;;;47.50;;
79401;SDS011;68857;47.916;106.940;2024-01-25T13:09:13;128.52;;;44.15;;
79401;SDS011;68857;47.916;106.940;2024-01-25T13:11:40;125.30;;;46.40;;
79401;SDS011;68857;47.916;106.940;2024-01-25T13:14:07;140.77;;;50.45;;
79401;SDS011;68857;47.916;106.940;2024-01-25T13:16:33;139.85;;;48.35;;
79401;SDS011;68857;47.916;106.940;2024-01-25T13:19:00;130.50;;;46.13;;
79401;SDS011;68857;47.916;106.940;2024-01-25T13:21:26;130.77;;;53.55;;
79401;SDS011;68857;47.916;106.940;2024-01-25T13:23:52;133.20;;;51.40;;
79401;SDS011;68857;47.916;106.940;2024-01-25T13:26:19;141.40;;;51.75;;
79401;SDS011;68857;47.916;106.940;2024-01-25T13:28:45;131.70;;;44.83;;
79401;SDS011;68857;47.916;106.940;2024-01-25T13:31:12;139.00;;;51.33;;
79401;SDS011;68857;47.916;106.940;2024-01-25T13:33:38;147.77;;;55.55;;
79401;SDS011;68857;47.916;106.940;2024-01-25T13:36:04;142.88;;;51.50;;
79401;SDS011;68857;47.916;106.940;2024-01-25T13:38:34;127.03;;;47.33;;
79401;SDS011;68857;47.916;106.940;2024-01-25T13:41:00;136.05;;;50.88;;
79401;SDS011;68857;47.916;106.940;2024-01-25T13:43:27;146.38;;;49.83;;
79401;SDS011;68857;47.916;106.940;2024-01-25T13:45:54;134.75;;;48.55;;
79401;SDS011;68857;47.916;106.940;2024-01-25T13:48:20;127.30;;;48.42;;
79401;SDS011;68857;47.916;106.940;2024-01-25T13:50:47;131.77;;;46.78;;
79401;SDS011;68857;47.916;106.940;2024-01-25T13:53:13;114.82;;;43.60;;
79401;SDS011;68857;47.916;106.940;2024-01-25T13:55:40;118.70;;;46.83;;
79401;SDS011;68857;47.916;106.940;2024-01-25T13:58:06;119.35;;;46.50;;
79401;SDS011;68857;47.916;106.940;2024-01-25T14:00:32;111.40;;;41.47;;
79401;SDS011;68857;47.916;106.940;2024-01-25T14:02:59;112.47;;;43.83;;
79401;SDS011;68857;47.916;106.940;2024-01-25T14:05:25;109.38;;;43.28;;
79401;SDS011;68857;47.916;106.940;2024-01-25T14:07:51;115.00;;;41.72;;
79401;SDS011;68857;47.916;106.940;2024-01-25T14:10:18;103.55;;;41.72;;
79401;SDS011;68857;47.916;106.940;2024-01-25T14:12:45;98.20;;;39.53;;